createdAt,value
2019-04-06T00:00:35.220Z,16.17
2019-04-06T00:03:02.803Z,16.43
2019-04-06T00:05:30.330Z,20.63
2019-04-06T00:07:57.775Z,18.97
2019-04-06T00:10:25.255Z,21.47
2019-04-06T00:12:52.860Z,21.67
2019-04-06T00:15:20.304Z,20.80
2019-04-06T00:17:47.768Z,21.93
2019-04-06T00:20:15.441Z,18.83
2019-04-06T00:22:42.829Z,19.10
2019-04-06T00:25:10.450Z,16.13
2019-04-06T00:27:37.917Z,17.60
2019-04-06T00:30:05.737Z,16.27
2019-04-06T00:32:40.527Z,18.47
2019-04-06T00:35:08.100Z,21.67
2019-04-06T00:37:35.545Z,17.17
2019-04-06T00:40:03.515Z,18.23
2019-04-06T00:42:30.935Z,19.50
2019-04-06T00:44:58.415Z,16.57
2019-04-06T00:47:25.824Z,18.23
2019-04-06T00:49:53.327Z,16.67
2019-04-06T00:52:20.834Z,18.77
2019-04-06T00:54:48.268Z,18.70
2019-04-06T00:57:15.735Z,20.40
2019-04-06T00:59:43.209Z,20.57
2019-04-06T01:02:10.681Z,18.00
2019-04-06T01:04:38.292Z,18.03
2019-04-06T01:07:05.948Z,20.60
2019-04-06T01:09:33.436Z,21.83
2019-04-06T01:12:01.010Z,20.73
2019-04-06T01:14:28.547Z,20.37
2019-04-06T01:16:56.285Z,18.97
2019-04-06T01:19:23.793Z,20.00
2019-04-06T01:21:51.633Z,20.57
2019-04-06T01:24:19.119Z,21.20
2019-04-06T01:26:46.867Z,22.10
2019-04-06T01:29:14.736Z,24.93
2019-04-06T01:31:42.197Z,20.60
2019-04-06T01:34:09.786Z,23.97
2019-04-06T01:36:37.300Z,22.53
2019-04-06T01:39:05.574Z,23.30
2019-04-06T01:41:33.033Z,22.53
2019-04-06T01:44:00.407Z,24.83
2019-04-06T01:46:27.902Z,23.47
2019-04-06T01:48:55.450Z,21.80
2019-04-06T01:51:22.870Z,20.80
2019-04-06T01:53:50.352Z,22.03
2019-04-06T01:56:19.050Z,23.97
2019-04-06T01:58:46.591Z,18.90
2019-04-06T02:01:24.281Z,20.10
2019-04-06T02:03:52.336Z,23.43
2019-04-06T02:06:19.794Z,23.67
2019-04-06T02:08:47.291Z,21.03
2019-04-06T02:11:14.827Z,19.73
2019-04-06T02:13:42.372Z,20.90
2019-04-06T02:16:09.812Z,21.67
2019-04-06T02:18:37.327Z,20.47
2019-04-06T02:21:04.837Z,22.73
2019-04-06T02:23:32.502Z,24.47
2019-04-06T02:26:00.064Z,21.87
2019-04-06T02:28:27.561Z,25.27
2019-04-06T02:31:14.621Z,21.97
2019-04-06T02:34:19.830Z,24.50
2019-04-06T02:36:59.602Z,27.80
2019-04-06T02:39:46.605Z,28.27
2019-04-06T02:42:18.121Z,21.80
2019-04-06T02:44:45.614Z,22.80
2019-04-06T02:47:13.136Z,22.17
2019-04-06T02:49:40.657Z,22.27
2019-04-06T02:52:08.183Z,21.73
2019-04-06T02:54:35.673Z,25.50
2019-04-06T02:57:03.092Z,21.37
2019-04-06T02:59:30.590Z,22.40
2019-04-06T03:01:58.099Z,23.07
2019-04-06T03:04:25.629Z,21.57
2019-04-06T03:06:53.126Z,21.13
2019-04-06T03:09:20.576Z,25.20
2019-04-06T03:11:48.009Z,19.60
2019-04-06T03:14:15.587Z,23.00
2019-04-06T03:16:43.111Z,25.20
2019-04-06T03:19:10.627Z,24.57
2019-04-06T03:21:38.272Z,23.10
2019-04-06T03:24:06.009Z,25.23
2019-04-06T03:26:33.426Z,28.57
2019-04-06T03:29:00.969Z,24.07
2019-04-06T03:31:28.702Z,26.23
2019-04-06T03:33:56.522Z,22.83
2019-04-06T03:36:23.994Z,26.90
2019-04-06T03:38:51.467Z,26.80
2019-04-06T03:41:18.852Z,26.33
2019-04-06T03:43:46.478Z,32.20
2019-04-06T03:46:13.900Z,29.17
2019-04-06T03:48:41.474Z,27.97
2019-04-06T03:51:08.934Z,30.97
2019-04-06T03:53:37.086Z,26.33
2019-04-06T03:56:04.791Z,28.67
2019-04-06T03:58:32.190Z,28.83
2019-04-06T04:00:59.797Z,40.77
2019-04-06T04:03:27.304Z,34.13
2019-04-06T04:05:54.781Z,31.13
2019-04-06T04:08:22.186Z,29.63
2019-04-06T04:10:49.685Z,29.20
2019-04-06T04:13:17.254Z,25.43
2019-04-06T04:15:44.885Z,26.40
2019-04-06T04:18:12.323Z,31.53
2019-04-06T04:20:39.879Z,32.97
2019-04-06T04:23:07.400Z,25.37
2019-04-06T04:25:34.951Z,32.53
2019-04-06T04:28:02.397Z,28.23
2019-04-06T04:30:33.396Z,25.70
2019-04-06T04:32:59.164Z,31.67
2019-04-06T04:35:26.535Z,26.77
2019-04-06T04:37:54.027Z,30.33
2019-04-06T04:40:21.545Z,27.30
2019-04-06T04:42:48.935Z,32.87
2019-04-06T04:45:16.497Z,30.27
2019-04-06T04:47:43.918Z,29.33
2019-04-06T04:50:11.513Z,33.43
2019-04-06T04:52:39.072Z,30.50
2019-04-06T04:55:07.265Z,35.03
2019-04-06T04:57:41.193Z,33.67
2019-04-06T05:00:05.686Z,33.57
2019-04-06T05:02:33.173Z,30.40
2019-04-06T05:05:00.657Z,32.90
2019-04-06T05:07:28.227Z,29.50
2019-04-06T05:09:55.718Z,27.47
2019-04-06T05:12:23.419Z,30.17
2019-04-06T05:15:00.267Z,21.90
2019-04-06T05:17:28.026Z,25.33
2019-04-06T05:19:55.682Z,30.63
2019-04-06T05:22:23.101Z,24.33
2019-04-06T05:24:50.839Z,34.80
2019-04-06T05:27:19.204Z,35.47
2019-04-06T05:29:46.612Z,35.23
2019-04-06T05:32:14.083Z,29.47
2019-04-06T05:34:41.594Z,26.57
2019-04-06T05:37:09.099Z,31.07
2019-04-06T05:39:36.686Z,26.03
2019-04-06T05:42:04.351Z,22.97
2019-04-06T05:44:31.974Z,29.80
2019-04-06T05:46:59.704Z,28.97
2019-04-06T05:49:27.395Z,27.57
2019-04-06T05:51:54.896Z,31.70
2019-04-06T05:54:22.478Z,24.13
2019-04-06T05:56:50.126Z,30.07
2019-04-06T05:59:17.882Z,28.20
2019-04-06T06:01:48.118Z,29.53
2019-04-06T06:04:15.049Z,21.33
2019-04-06T06:06:42.794Z,25.33
2019-04-06T06:09:10.319Z,25.67
2019-04-06T06:11:37.759Z,25.73
2019-04-06T06:14:05.802Z,26.43
2019-04-06T06:16:33.389Z,25.67
2019-04-06T06:19:00.875Z,33.03
2019-04-06T06:21:28.785Z,23.43
2019-04-06T06:23:56.671Z,20.60
2019-04-06T06:26:24.156Z,28.93
2019-04-06T06:28:51.742Z,25.57
2019-04-06T06:31:19.341Z,20.13
2019-04-06T06:33:47.061Z,26.60
2019-04-06T06:36:14.730Z,31.27
2019-04-06T06:38:42.312Z,30.07
2019-04-06T06:41:09.949Z,22.83
2019-04-06T06:43:37.461Z,22.93
2019-04-06T06:46:05.026Z,25.47
2019-04-06T06:48:32.438Z,23.17
2019-04-06T06:50:59.979Z,21.70
2019-04-06T06:53:27.510Z,20.50
2019-04-06T06:55:54.962Z,24.53
2019-04-06T06:58:25.526Z,24.23
2019-04-06T07:00:51.725Z,19.70
2019-04-06T07:03:19.187Z,23.20
2019-04-06T07:05:46.738Z,22.00
2019-04-06T07:08:14.161Z,24.90
2019-04-06T07:10:41.818Z,18.83
2019-04-06T07:13:09.451Z,25.67
2019-04-06T07:15:36.914Z,24.30
2019-04-06T07:18:04.563Z,21.57
2019-04-06T07:20:32.027Z,26.50
2019-04-06T07:22:59.541Z,19.83
2019-04-06T07:25:27.212Z,21.63
2019-04-06T07:27:54.695Z,24.77
2019-04-06T07:30:22.471Z,25.10
2019-04-06T07:32:49.960Z,17.17
2019-04-06T07:35:17.423Z,25.83
2019-04-06T07:37:44.883Z,17.83
2019-04-06T07:40:12.726Z,21.00
2019-04-06T07:42:40.259Z,23.53
2019-04-06T07:45:08.933Z,22.53
2019-04-06T07:47:36.363Z,20.80
2019-04-06T07:50:04.514Z,20.77
2019-04-06T07:52:32.023Z,21.87
2019-04-06T07:54:59.468Z,23.47
2019-04-06T07:57:26.931Z,22.73
2019-04-06T07:59:54.646Z,22.50
2019-04-06T08:02:22.140Z,19.17
2019-04-06T08:04:49.646Z,25.60
2019-04-06T08:07:17.200Z,20.63
2019-04-06T08:09:44.722Z,24.77
2019-04-06T08:12:12.301Z,19.10
2019-04-06T08:14:39.833Z,26.07
2019-04-06T08:17:08.334Z,23.97
2019-04-06T08:19:35.846Z,20.90
2019-04-06T08:22:03.674Z,21.27
2019-04-06T08:24:31.113Z,21.10
2019-04-06T08:26:58.581Z,21.53
2019-04-06T08:29:26.054Z,24.33
2019-04-06T08:31:53.658Z,23.10
2019-04-06T08:34:21.095Z,22.97
2019-04-06T08:36:48.596Z,26.53
2019-04-06T08:39:15.969Z,18.77
2019-04-06T08:41:43.458Z,29.80
2019-04-06T08:44:11.162Z,23.53
2019-04-06T08:46:38.755Z,22.83
2019-04-06T08:49:06.389Z,20.07
2019-04-06T08:51:33.842Z,16.07
2019-04-06T08:54:01.252Z,15.80
2019-04-06T08:56:28.855Z,18.53
2019-04-06T08:58:56.658Z,21.07
2019-04-06T09:01:24.396Z,22.97
2019-04-06T09:03:52.541Z,20.93
2019-04-06T09:06:20.055Z,19.87
2019-04-06T09:08:47.541Z,18.17
2019-04-06T09:11:15.013Z,21.47
2019-04-06T09:13:42.721Z,22.73
2019-04-06T09:16:10.197Z,17.63
2019-04-06T09:18:37.937Z,22.20
2019-04-06T09:21:05.520Z,22.30
2019-04-06T09:23:32.916Z,18.33
2019-04-06T09:26:00.533Z,19.20
2019-04-06T09:28:28.113Z,14.47
2019-04-06T09:30:55.582Z,24.03
2019-04-06T09:33:23.144Z,21.93
2019-04-06T09:35:50.611Z,20.27
2019-04-06T09:38:21.084Z,26.90
2019-04-06T09:40:49.455Z,16.93
2019-04-06T09:43:17.734Z,18.37
2019-04-06T09:46:10.537Z,15.43
2019-04-06T09:48:57.489Z,19.80
2019-04-06T09:51:56.826Z,19.00
2019-04-06T09:54:46.970Z,19.20
2019-04-06T09:57:21.976Z,22.17
2019-04-06T10:00:00.797Z,19.07
2019-04-06T10:02:54.060Z,18.27
2019-04-06T10:05:31.236Z,16.50
2019-04-06T10:08:33.259Z,15.90
2019-04-06T10:11:32.382Z,16.27
2019-04-06T10:14:11.269Z,15.57
2019-04-06T10:16:56.906Z,18.57
2019-04-06T10:19:56.260Z,16.63
2019-04-06T10:22:33.066Z,15.13
2019-04-06T10:25:20.142Z,15.83
2019-04-06T10:28:26.511Z,14.83
2019-04-06T10:31:11.845Z,18.60
2019-04-06T10:34:13.999Z,15.53
2019-04-06T10:36:59.506Z,18.37
2019-04-06T10:39:39.873Z,19.53
2019-04-06T10:42:45.121Z,15.73
2019-04-06T10:45:22.623Z,15.87
2019-04-06T10:48:27.968Z,13.13
2019-04-06T10:51:14.923Z,13.90
2019-04-06T10:53:58.681Z,15.60
2019-04-06T10:56:52.254Z,16.00
2019-04-06T10:59:45.248Z,17.13
2019-04-06T11:02:30.688Z,19.80
2019-04-06T11:05:05.124Z,17.53
2019-04-06T11:08:00.140Z,17.50
2019-04-06T11:10:53.081Z,14.27
2019-04-06T11:13:40.091Z,14.53
2019-04-06T11:16:24.254Z,19.07
2019-04-06T11:19:02.660Z,18.30
2019-04-06T11:21:49.740Z,16.43
2019-04-06T11:24:48.982Z,15.57
2019-04-06T11:27:34.430Z,16.93
2019-04-06T11:30:27.907Z,14.07
2019-04-06T11:33:06.053Z,15.73
2019-04-06T11:35:53.546Z,15.00
2019-04-06T11:38:39.253Z,18.03
2019-04-06T11:41:26.532Z,17.83
2019-04-06T11:44:02.840Z,14.30
2019-04-06T11:46:58.851Z,13.90
2019-04-06T11:49:37.469Z,15.93
2019-04-06T11:52:23.459Z,15.97
2019-04-06T11:55:25.613Z,14.20
2019-04-06T11:58:19.783Z,16.20
2019-04-06T12:01:09.326Z,14.30
2019-04-06T12:04:00.643Z,15.23
2019-04-06T12:06:46.241Z,15.73
2019-04-06T12:09:36.155Z,15.60
2019-04-06T12:12:22.094Z,16.50
2019-04-06T12:14:58.432Z,17.00
2019-04-06T12:17:54.382Z,14.23
2019-04-06T12:20:47.580Z,14.20
2019-04-06T12:23:34.750Z,18.03
2019-04-06T12:26:18.738Z,17.70
2019-04-06T12:29:20.825Z,15.10
2019-04-06T12:32:00.412Z,14.97
2019-04-06T12:34:45.673Z,15.93
2019-04-06T12:37:47.835Z,13.03
2019-04-06T12:40:21.343Z,13.70
2019-04-06T12:43:12.358Z,11.90
2019-04-06T12:45:50.744Z,11.23
2019-04-06T12:48:36.743Z,13.43
2019-04-06T12:51:22.312Z,12.40
2019-04-06T12:54:12.588Z,12.60
2019-04-06T12:56:50.400Z,13.00
2019-04-06T12:59:46.111Z,12.27
2019-04-06T13:02:22.206Z,14.93
2019-04-06T13:05:08.841Z,13.67
2019-04-06T13:07:58.669Z,14.07
2019-04-06T13:10:31.923Z,13.47
2019-04-06T13:13:20.257Z,13.23
2019-04-06T13:16:16.767Z,12.50
2019-04-06T13:19:02.660Z,10.80
2019-04-06T13:21:49.797Z,13.13
2019-04-06T13:24:29.024Z,16.30
2019-04-06T13:27:18.775Z,12.90
2019-04-06T13:30:08.837Z,19.20
2019-04-06T13:33:00.766Z,13.77
2019-04-06T13:35:50.412Z,12.47
2019-04-06T13:38:46.263Z,12.60
2019-04-06T13:41:31.749Z,15.27
2019-04-06T13:44:06.783Z,11.00
2019-04-06T13:46:57.361Z,16.40
2019-04-06T13:49:44.494Z,14.63
2019-04-06T13:52:40.723Z,15.87
2019-04-06T13:55:19.957Z,16.53
2019-04-06T13:58:05.270Z,13.60
2019-04-06T14:01:15.079Z,19.30
2019-04-06T14:04:08.195Z,14.30
2019-04-06T14:06:52.378Z,12.87
2019-04-06T14:09:45.470Z,13.40
2019-04-06T14:12:31.132Z,14.83
2019-04-06T14:15:16.904Z,13.17
2019-04-06T14:18:06.881Z,14.43
2019-04-06T14:20:41.220Z,14.70
2019-04-06T14:23:22.637Z,12.50
2019-04-06T14:26:24.732Z,16.00
2019-04-06T14:29:14.814Z,13.53
2019-04-06T14:32:10.972Z,15.03
2019-04-06T14:35:01.281Z,16.23
2019-04-06T14:37:52.458Z,13.20
2019-04-06T14:40:42.425Z,15.37
2019-04-06T14:43:25.860Z,14.57
2019-04-06T14:46:17.817Z,14.60
2019-04-06T14:49:22.448Z,14.63
2019-04-06T14:52:03.271Z,16.03
2019-04-06T14:54:53.398Z,14.07
2019-04-06T14:57:55.654Z,14.73
2019-04-06T15:00:52.067Z,15.17
2019-04-06T15:03:39.274Z,16.93
2019-04-06T15:06:30.290Z,15.03
2019-04-06T15:09:23.560Z,14.43
2019-04-06T15:12:19.632Z,15.37
2019-04-06T15:15:06.666Z,13.57
2019-04-06T15:17:54.856Z,15.67
2019-04-06T15:20:33.128Z,15.73
2019-04-06T15:23:18.791Z,18.77
2019-04-06T15:26:04.220Z,14.40
2019-04-06T15:28:48.963Z,16.97
2019-04-06T15:31:31.425Z,15.03
2019-04-06T15:34:17.290Z,15.67
2019-04-06T15:36:54.270Z,16.50
2019-04-06T15:39:44.501Z,15.83
2019-04-06T15:42:28.802Z,16.80
2019-04-06T15:45:15.779Z,16.40
2019-04-06T15:48:08.719Z,14.63
2019-04-06T15:50:56.254Z,15.83
2019-04-06T15:54:01.599Z,20.80
2019-04-06T15:56:54.865Z,17.20
2019-04-06T15:59:42.341Z,16.87
2019-04-06T16:02:32.453Z,19.40
2019-04-06T16:05:22.211Z,18.77
2019-04-06T16:08:09.281Z,18.00
2019-04-06T16:10:54.519Z,18.20
2019-04-06T16:13:41.591Z,16.83
2019-04-06T16:16:13.335Z,16.73
2019-04-06T16:18:58.926Z,21.53
2019-04-06T16:22:04.552Z,20.23
2019-04-06T16:24:46.931Z,19.80
2019-04-06T16:27:34.791Z,21.73
2019-04-06T16:30:27.614Z,19.73
2019-04-06T16:33:18.159Z,19.97
2019-04-06T16:36:02.616Z,18.50
2019-04-06T16:39:01.489Z,19.00
2019-04-06T16:42:07.604Z,21.40
2019-04-06T16:44:48.259Z,19.93
2019-04-06T16:47:44.554Z,21.67
2019-04-06T16:50:30.845Z,29.70
2019-04-06T16:53:08.190Z,21.97
2019-04-06T16:56:07.337Z,22.23
2019-04-06T16:58:57.313Z,21.63
2019-04-06T17:01:38.568Z,19.83
2019-04-06T17:04:22.594Z,20.77
2019-04-06T17:07:09.983Z,19.30
2019-04-06T17:09:51.661Z,21.97
2019-04-06T17:12:44.765Z,20.87
2019-04-06T17:15:36.277Z,21.37
2019-04-06T17:18:32.708Z,21.83
2019-04-06T17:21:36.085Z,19.23
2019-04-06T17:24:21.610Z,18.40
2019-04-06T17:27:24.473Z,18.97
2019-04-06T17:30:13.489Z,20.40
2019-04-06T17:33:09.594Z,24.87
2019-04-06T17:35:55.163Z,17.70
2019-04-06T17:38:38.691Z,20.87
2019-04-06T17:41:20.683Z,19.27
2019-04-06T17:44:07.723Z,20.43
2019-04-06T17:47:03.910Z,21.13
2019-04-06T17:50:03.150Z,19.87
2019-04-06T17:52:53.348Z,17.70
2019-04-06T17:55:29.531Z,17.97
2019-04-06T17:58:16.610Z,17.83
2019-04-06T18:00:51.494Z,18.20
2019-04-06T18:03:33.197Z,16.70
2019-04-06T18:06:16.768Z,19.63
2019-04-06T18:08:52.272Z,21.70
2019-04-06T18:11:45.199Z,24.50
2019-04-06T18:14:12.690Z,20.97
2019-04-06T18:16:40.249Z,22.00
2019-04-06T18:19:07.823Z,20.23
2019-04-06T18:21:35.302Z,18.20
2019-04-06T18:24:03.531Z,19.93
2019-04-06T18:26:31.128Z,19.57
2019-04-06T18:28:58.729Z,19.87
2019-04-06T18:31:54.920Z,16.50
2019-04-06T18:34:22.876Z,17.43
2019-04-06T18:37:10.119Z,17.63
2019-04-06T18:39:37.620Z,20.00
2019-04-06T18:42:05.271Z,20.70
2019-04-06T18:44:32.767Z,18.17
2019-04-06T18:47:00.739Z,23.67
2019-04-06T18:49:28.496Z,18.13
2019-04-06T18:51:56.460Z,21.63
2019-04-06T18:54:24.703Z,19.90
2019-04-06T18:56:52.466Z,22.20
2019-04-06T18:59:20.046Z,28.03
2019-04-06T19:01:47.575Z,21.73
2019-04-06T19:04:15.129Z,21.67
2019-04-06T19:06:43.126Z,26.57
2019-04-06T19:09:20.798Z,26.00
2019-04-06T19:11:40.832Z,18.37
2019-04-06T19:14:09.568Z,19.27
2019-04-06T19:16:37.618Z,21.30
2019-04-06T19:19:05.681Z,21.37
2019-04-06T19:21:33.732Z,19.57
2019-04-06T19:24:01.214Z,18.97
2019-04-06T19:26:28.827Z,22.00
2019-04-06T19:28:56.856Z,22.03
2019-04-06T19:31:25.036Z,20.90
2019-04-06T19:33:52.891Z,22.87
2019-04-06T19:36:20.467Z,20.80
2019-04-06T19:38:48.371Z,18.90
2019-04-06T19:41:15.952Z,20.93
2019-04-06T19:43:43.580Z,17.00
2019-04-06T19:46:11.208Z,22.53
2019-04-06T19:48:40.765Z,21.03
2019-04-06T19:51:08.738Z,26.03
2019-04-06T19:53:36.156Z,35.47
2019-04-06T19:56:04.739Z,25.20
2019-04-06T19:58:32.361Z,28.90
2019-04-06T20:00:59.838Z,22.17
2019-04-06T20:03:35.093Z,24.80
2019-04-06T20:05:57.234Z,21.33
2019-04-06T20:08:25.498Z,24.60
2019-04-06T20:10:53.291Z,22.60
2019-04-06T20:13:21.049Z,18.87
2019-04-06T20:15:49.170Z,20.80
2019-04-06T20:18:17.105Z,22.13
2019-04-06T20:20:45.295Z,20.20
2019-04-06T20:23:12.952Z,19.20
2019-04-06T20:25:40.895Z,23.20
2019-04-06T20:28:08.357Z,20.57
2019-04-06T20:30:35.738Z,20.53
2019-04-06T20:33:04.259Z,21.57
2019-04-06T20:35:31.904Z,19.90
2019-04-06T20:37:59.282Z,24.07
2019-04-06T20:40:26.757Z,23.50
2019-04-06T20:42:54.283Z,24.47
2019-04-06T20:45:21.700Z,22.73
2019-04-06T20:47:49.703Z,23.60
2019-04-06T20:50:17.888Z,19.50
2019-04-06T20:52:46.032Z,21.20
2019-04-06T20:55:14.285Z,19.80
2019-04-06T20:57:41.992Z,19.70
2019-04-06T21:00:09.897Z,19.60
2019-04-06T21:02:37.653Z,24.33
2019-04-06T21:05:05.663Z,21.43
2019-04-06T21:07:33.421Z,19.47
2019-04-06T21:10:00.986Z,18.80
2019-04-06T21:12:28.589Z,19.50
2019-04-06T21:14:56.139Z,21.13
2019-04-06T21:17:23.634Z,21.90
2019-04-06T21:19:51.621Z,19.47
2019-04-06T21:22:19.417Z,20.27
2019-04-06T21:24:46.904Z,19.93
2019-04-06T21:27:14.362Z,21.07
2019-04-06T21:29:41.810Z,20.07
2019-04-06T21:32:09.249Z,23.30
2019-04-06T21:34:36.870Z,20.07
2019-04-06T21:37:04.314Z,20.03
2019-04-06T21:39:32.366Z,19.93
2019-04-06T21:42:00.672Z,24.50
2019-04-06T21:44:28.397Z,23.53
2019-04-06T21:46:55.919Z,22.63
2019-04-06T21:49:23.420Z,25.17
2019-04-06T21:51:51.536Z,23.40
2019-04-06T21:54:19.254Z,19.90
2019-04-06T21:56:46.818Z,19.53
2019-04-06T21:59:16.084Z,21.93
2019-04-06T22:01:45.017Z,24.30
2019-04-06T22:04:23.037Z,22.90
2019-04-06T22:06:42.584Z,20.53
2019-04-06T22:09:11.527Z,28.63
2019-04-06T22:11:39.022Z,21.83
2019-04-06T22:14:06.996Z,25.17
2019-04-06T22:16:34.656Z,21.07
2019-04-06T22:19:02.194Z,20.33
2019-04-06T22:21:29.691Z,21.27
2019-04-06T22:23:57.258Z,20.97
2019-04-06T22:26:24.779Z,20.87
2019-04-06T22:28:52.328Z,21.67
2019-04-06T22:31:20.078Z,18.93
2019-04-06T22:33:47.613Z,22.43
2019-04-06T22:36:15.275Z,20.33
2019-04-06T22:38:43.333Z,24.07
2019-04-06T22:41:10.852Z,23.03
2019-04-06T22:43:38.862Z,20.37
2019-04-06T22:46:06.965Z,18.97
2019-04-06T22:48:34.674Z,19.87
2019-04-06T22:51:02.279Z,18.20
2019-04-06T22:53:29.803Z,21.00
2019-04-06T22:55:57.320Z,20.77
2019-04-06T22:58:25.306Z,19.80
2019-04-06T23:01:01.330Z,23.33
2019-04-06T23:03:53.736Z,17.57
2019-04-06T23:06:26.132Z,22.13
2019-04-06T23:08:54.043Z,23.23
2019-04-06T23:11:22.253Z,23.30
2019-04-06T23:13:50.310Z,20.93
2019-04-06T23:16:18.267Z,19.63
2019-04-06T23:18:45.834Z,15.07
2019-04-06T23:21:13.512Z,20.43
2019-04-06T23:23:40.982Z,16.83
2019-04-06T23:26:08.835Z,20.03
2019-04-06T23:28:36.718Z,21.30
2019-04-06T23:31:04.294Z,20.80
2019-04-06T23:33:32.000Z,21.37
2019-04-06T23:35:59.530Z,24.27
2019-04-06T23:38:27.086Z,22.43
2019-04-06T23:40:54.759Z,19.73
2019-04-06T23:43:22.381Z,17.13
2019-04-06T23:45:50.374Z,20.87
2019-04-06T23:48:18.006Z,21.10
2019-04-06T23:50:45.511Z,19.37
2019-04-06T23:53:12.993Z,17.53
2019-04-06T23:55:41.070Z,16.53
2019-04-06T23:58:08.470Z,18.27
